Terminal Aerodrome Forecast
Issued by NWS

Home | Current Version | Previous Version | Text Only | Print | Product List | Glossary On
Versions: 1 2 3 4 5 6 7 8 9 10 11 12
000
FTUS45 KABQ 071138
TAFFMN
TAF
KFMN 071138Z 0712/0812 VRB05KT P6SM SCT110
     FM071900 21007KT P6SM FEW080
     FM080000 24010KT P6SM VCTS SCT080CB BKN140
     FM080200 32011KT P6SM VCSH SCT080 BKN120
     FM080500 VRB05KT P6SM SCT120=

USA.gov is the U.S. government's official web portal to all federal, state and local government web resources and services.